createdAt,value
2022-11-20T00:01:09.985Z,-1.46
2022-11-20T00:03:36.506Z,-1.47
2022-11-20T00:06:04.354Z,-1.45
2022-11-20T00:08:30.837Z,-1.48
2022-11-20T00:10:57.320Z,-1.50
2022-11-20T00:13:24.190Z,-1.57
2022-11-20T00:15:58.335Z,-1.62
2022-11-20T00:18:24.908Z,-1.70
2022-11-20T00:20:51.273Z,-1.73
2022-11-20T00:23:17.938Z,-1.75
2022-11-20T00:25:44.477Z,-1.72
2022-11-20T00:28:10.829Z,-1.74
2022-11-20T00:30:37.233Z,-1.74
2022-11-20T00:33:03.847Z,-1.75
2022-11-20T00:35:30.839Z,-1.75
2022-11-20T00:37:57.285Z,-1.75
2022-11-20T00:40:23.654Z,-1.76
2022-11-20T00:42:50.185Z,-1.74
2022-11-20T00:45:16.547Z,-1.76
2022-11-20T00:47:42.955Z,-1.79
2022-11-20T00:50:09.721Z,-1.77
2022-11-20T00:52:36.099Z,-1.74
2022-11-20T00:55:02.554Z,-1.71
2022-11-20T00:57:28.981Z,-1.70
2022-11-20T00:59:55.374Z,-1.72
2022-11-20T01:02:21.846Z,-1.76
2022-11-20T01:04:48.241Z,-1.76
2022-11-20T01:07:14.718Z,-1.77
2022-11-20T01:09:41.281Z,-1.78
2022-11-20T01:12:07.631Z,-1.78
2022-11-20T01:14:34.081Z,-1.78
2022-11-20T01:17:00.797Z,-1.81
2022-11-20T01:19:27.125Z,-1.87
2022-11-20T01:21:55.838Z,-1.91
2022-11-20T01:24:23.154Z,-1.94
2022-11-20T01:26:51.965Z,-1.92
2022-11-20T01:29:22.084Z,-1.94
2022-11-20T01:31:49.200Z,-1.98
2022-11-20T01:34:19.449Z,-2.00
2022-11-20T01:36:46.895Z,-2.04
2022-11-20T01:39:22.854Z,-2.02
2022-11-20T01:42:10.325Z,-2.00
2022-11-20T01:45:00.376Z,-2.00
2022-11-20T01:47:36.380Z,-1.99
2022-11-20T01:50:19.746Z,-2.00
2022-11-20T01:52:55.926Z,-2.04
2022-11-20T01:55:26.976Z,-2.07
2022-11-20T01:57:53.920Z,-2.12
2022-11-20T02:00:21.552Z,-2.19
2022-11-20T02:03:06.393Z,-2.13
2022-11-20T02:05:37.785Z,-2.16
2022-11-20T02:08:06.777Z,-2.20
2022-11-20T02:10:34.407Z,-2.20
2022-11-20T02:13:19.540Z,-2.20
2022-11-20T02:15:46.949Z,-2.23
2022-11-20T02:18:16.927Z,-2.30
2022-11-20T02:20:46.236Z,-2.29
2022-11-20T02:23:16.469Z,-2.29
2022-11-20T02:25:43.797Z,-2.30
2022-11-20T02:28:11.131Z,-2.29
2022-11-20T02:30:37.578Z,-2.29
2022-11-20T02:33:04.059Z,-2.32
2022-11-20T02:35:30.456Z,-2.34
2022-11-20T02:38:02.497Z,-2.33
2022-11-20T02:40:29.687Z,-2.33
2022-11-20T02:42:57.797Z,-2.31
2022-11-20T02:45:25.515Z,-2.36
2022-11-20T02:47:52.625Z,-2.42
2022-11-20T02:50:19.363Z,-2.46
2022-11-20T02:52:45.837Z,-2.45
2022-11-20T02:55:12.602Z,-2.49
2022-11-20T02:57:39.057Z,-2.53
2022-11-20T03:00:07.700Z,-2.51
2022-11-20T03:02:34.319Z,-2.48
2022-11-20T03:05:00.665Z,-2.49
2022-11-20T03:07:27.076Z,-2.53
2022-11-20T03:09:53.473Z,-2.56
2022-11-20T03:12:19.820Z,-2.61
2022-11-20T03:14:51.620Z,-2.63
2022-11-20T03:17:19.321Z,-2.65
2022-11-20T03:19:45.689Z,-2.63
2022-11-20T03:22:12.181Z,-2.62
2022-11-20T03:24:38.583Z,-2.61
2022-11-20T03:27:05.209Z,-2.60
2022-11-20T03:29:31.551Z,-2.60
2022-11-20T03:31:57.970Z,-2.62
2022-11-20T03:34:24.583Z,-2.67
2022-11-20T03:36:50.964Z,-2.70
2022-11-20T03:39:17.323Z,-2.73
2022-11-20T03:41:44.324Z,-2.73
2022-11-20T03:44:12.060Z,-2.70
2022-11-20T03:46:38.838Z,-2.68
2022-11-20T03:49:05.771Z,-2.67
2022-11-20T03:51:34.764Z,-2.67
2022-11-20T03:54:04.347Z,-2.66
2022-11-20T03:56:33.857Z,-2.68
2022-11-20T03:59:00.447Z,-2.69
2022-11-20T04:01:29.347Z,-2.74
2022-11-20T04:03:57.390Z,-2.77
2022-11-20T04:06:30.534Z,-2.77
2022-11-20T04:08:58.623Z,-2.77
2022-11-20T04:11:30.265Z,-2.80
2022-11-20T04:14:02.364Z,-2.85
2022-11-20T04:16:34.664Z,-2.90
2022-11-20T04:19:03.266Z,-2.91
2022-11-20T04:21:30.278Z,-2.91
2022-11-20T04:23:57.202Z,-2.94
2022-11-20T04:26:26.687Z,-2.91
2022-11-20T04:28:53.128Z,-2.93
2022-11-20T04:31:23.197Z,-2.97
2022-11-20T04:33:49.826Z,-2.97
2022-11-20T04:36:25.879Z,-2.93
2022-11-20T04:38:59.436Z,-2.92
2022-11-20T04:41:28.978Z,-2.95
2022-11-20T04:44:00.469Z,-3.00
2022-11-20T04:46:28.380Z,-3.02
2022-11-20T04:48:55.265Z,-3.07
2022-11-20T04:51:21.616Z,-3.09
2022-11-20T04:53:48.342Z,-3.10
2022-11-20T04:56:15.329Z,-3.13
2022-11-20T04:58:41.872Z,-3.10
2022-11-20T05:01:14.626Z,-3.06
2022-11-20T05:03:42.873Z,-3.11
2022-11-20T05:06:11.698Z,-3.13
2022-11-20T05:08:38.554Z,-3.12
2022-11-20T05:11:11.075Z,-3.10
2022-11-20T05:13:38.181Z,-3.13
2022-11-20T05:16:14.327Z,-3.16
2022-11-20T05:18:41.825Z,-3.18
2022-11-20T05:21:09.049Z,-3.18
2022-11-20T05:23:36.014Z,-3.17
2022-11-20T05:26:02.626Z,-3.15
2022-11-20T05:28:31.150Z,-3.15
2022-11-20T05:31:04.595Z,-3.13
2022-11-20T05:33:31.002Z,-3.15
2022-11-20T05:36:01.090Z,-3.18
2022-11-20T05:38:27.540Z,-3.18
2022-11-20T05:40:53.944Z,-3.21
2022-11-20T05:43:20.272Z,-3.25
2022-11-20T05:45:55.729Z,-3.28
2022-11-20T05:48:22.177Z,-3.28
2022-11-20T05:50:49.423Z,-3.29
2022-11-20T05:53:15.878Z,-3.30
2022-11-20T05:55:42.552Z,-3.26
2022-11-20T05:58:08.996Z,-3.30
2022-11-20T06:00:36.308Z,-3.31
2022-11-20T06:03:02.994Z,-3.37
2022-11-20T06:05:29.493Z,-3.39
2022-11-20T06:07:55.913Z,-3.43
2022-11-20T06:10:22.329Z,-3.43
2022-11-20T06:12:48.681Z,-3.40
2022-11-20T06:15:15.048Z,-3.42
2022-11-20T06:17:41.410Z,-3.43
2022-11-20T06:20:08.267Z,-3.39
2022-11-20T06:22:34.591Z,-3.37
2022-11-20T06:25:00.955Z,-3.35
2022-11-20T06:27:28.163Z,-3.35
2022-11-20T06:29:54.569Z,-3.35
2022-11-20T06:32:21.001Z,-3.36
2022-11-20T06:34:47.408Z,-3.35
2022-11-20T06:37:13.806Z,-3.33
2022-11-20T06:39:40.347Z,-3.35
2022-11-20T06:42:06.704Z,-3.38
2022-11-20T06:44:33.720Z,-3.40
2022-11-20T06:47:00.620Z,-3.46
2022-11-20T06:49:27.023Z,-3.46
2022-11-20T06:51:53.422Z,-3.42
2022-11-20T06:54:19.787Z,-3.38
2022-11-20T06:56:49.658Z,-3.37
2022-11-20T06:59:16.083Z,-3.35
2022-11-20T07:01:42.439Z,-3.36
2022-11-20T07:04:08.853Z,-3.36
2022-11-20T07:06:35.282Z,-3.34
2022-11-20T07:09:02.550Z,-3.35
2022-11-20T07:11:28.914Z,-3.36
2022-11-20T07:13:55.431Z,-3.37
2022-11-20T07:16:21.756Z,-3.37
2022-11-20T07:18:50.794Z,-3.36
2022-11-20T07:21:17.669Z,-3.36
2022-11-20T07:23:44.027Z,-3.38
2022-11-20T07:26:12.298Z,-3.38
2022-11-20T07:28:39.846Z,-3.36
2022-11-20T07:31:08.317Z,-3.34
2022-11-20T07:33:34.864Z,-3.33
2022-11-20T07:36:01.496Z,-3.36
2022-11-20T07:38:28.265Z,-3.38
2022-11-20T07:40:56.633Z,-3.34
2022-11-20T07:43:23.016Z,-3.30
2022-11-20T07:45:49.571Z,-3.27
2022-11-20T07:48:16.052Z,-3.25
2022-11-20T07:50:42.647Z,-3.24
2022-11-20T07:53:09.142Z,-3.22
2022-11-20T07:55:35.587Z,-3.19
2022-11-20T07:58:01.949Z,-3.15
2022-11-20T08:00:28.924Z,-3.10
2022-11-20T08:02:55.740Z,-3.06
2022-11-20T08:05:22.893Z,-3.03
2022-11-20T08:07:49.351Z,-3.00
2022-11-20T08:10:17.364Z,-2.97
2022-11-20T08:13:11.492Z,-2.91
2022-11-20T08:15:42.791Z,-2.91
2022-11-20T08:18:34.673Z,-2.87
2022-11-20T08:21:08.428Z,-2.79
2022-11-20T08:23:41.826Z,-2.71
2022-11-20T08:26:08.723Z,-2.64
2022-11-20T08:28:35.774Z,-2.62
2022-11-20T08:31:03.342Z,-2.58
2022-11-20T08:33:30.805Z,-2.56
2022-11-20T08:36:02.246Z,-2.53
2022-11-20T08:38:28.819Z,-2.53
2022-11-20T08:41:21.589Z,-2.48
2022-11-20T08:43:48.340Z,-2.47
2022-11-20T08:46:15.229Z,-2.44
2022-11-20T08:48:42.047Z,-2.43
2022-11-20T08:51:08.402Z,-2.41
2022-11-20T08:53:34.855Z,-2.36
2022-11-20T08:56:01.822Z,-2.32
2022-11-20T08:58:28.460Z,-2.29
2022-11-20T09:00:54.928Z,-2.26
2022-11-20T09:03:21.365Z,-2.22
2022-11-20T09:05:47.752Z,-2.19
2022-11-20T09:08:14.249Z,-2.16
2022-11-20T09:10:40.827Z,-2.14
2022-11-20T09:13:07.414Z,-2.10
2022-11-20T09:15:34.955Z,-2.06
2022-11-20T09:18:03.672Z,-2.02
2022-11-20T09:20:31.139Z,-1.98
2022-11-20T09:22:58.833Z,-1.95
2022-11-20T09:25:25.767Z,-1.91
2022-11-20T09:27:59.572Z,-1.87
2022-11-20T09:30:26.826Z,-1.83
2022-11-20T09:32:53.383Z,-1.80
2022-11-20T09:35:20.473Z,-1.76
2022-11-20T09:37:47.418Z,-1.71
2022-11-20T09:40:29.800Z,-1.67
2022-11-20T09:43:18.905Z,-1.58
2022-11-20T09:45:57.851Z,-1.51
2022-11-20T09:48:43.581Z,-1.43
2022-11-20T09:51:13.080Z,-1.38
2022-11-20T09:54:10.940Z,-1.32
2022-11-20T09:56:43.325Z,-1.25
2022-11-20T09:59:23.646Z,-1.21
2022-11-20T10:01:51.242Z,-1.16
2022-11-20T10:04:20.875Z,-1.12
2022-11-20T10:09:57.855Z,-1.04
2022-11-20T10:12:42.840Z,-0.99
2022-11-20T10:15:35.576Z,-0.93
2022-11-20T10:18:04.947Z,-0.88
2022-11-20T10:20:58.247Z,-0.81
2022-11-20T10:23:43.954Z,-0.74
2022-11-20T10:26:23.912Z,-0.65
2022-11-20T10:29:16.848Z,-0.52
2022-11-20T10:31:57.734Z,-0.44
2022-11-20T10:34:30.645Z,-0.40
2022-11-20T10:37:04.866Z,-0.37
2022-11-20T10:39:38.911Z,-0.32
2022-11-20T10:42:12.178Z,-0.26
2022-11-20T10:45:06.079Z,-0.19
2022-11-20T10:47:34.634Z,-0.15
2022-11-20T10:50:10.693Z,-0.12
2022-11-20T10:52:37.079Z,-0.12
2022-11-20T10:55:18.216Z,-0.10
2022-11-20T10:58:01.083Z,-0.07
2022-11-20T11:00:27.415Z,-0.05
2022-11-20T11:02:58.724Z,-0.03
2022-11-20T11:05:37.525Z,0.01
2022-11-20T11:08:06.336Z,0.02
2022-11-20T11:10:54.082Z,0.05
2022-11-20T11:13:21.771Z,0.09
2022-11-20T11:15:48.204Z,0.10
2022-11-20T11:18:27.804Z,0.14
2022-11-20T11:20:55.716Z,0.14
2022-11-20T11:23:40.781Z,0.16
2022-11-20T11:26:22.724Z,0.16
2022-11-20T11:28:56.690Z,0.20
2022-11-20T11:31:24.894Z,0.23
2022-11-20T11:33:51.338Z,0.26
2022-11-20T11:36:22.497Z,0.31
2022-11-20T11:38:53.249Z,0.35
2022-11-20T11:41:39.994Z,0.38
2022-11-20T11:44:40.853Z,0.40
2022-11-20T11:47:20.613Z,0.42
2022-11-20T11:49:46.956Z,0.43
2022-11-20T11:52:17.356Z,0.42
2022-11-20T11:54:46.637Z,0.44
2022-11-20T11:57:27.763Z,0.49
2022-11-20T12:00:14.641Z,0.56
2022-11-20T12:02:46.987Z,0.59
2022-11-20T12:05:21.815Z,0.62
2022-11-20T12:07:54.904Z,0.63
2022-11-20T12:10:57.225Z,0.67
2022-11-20T12:13:54.493Z,0.71
2022-11-20T12:16:21.691Z,0.76
2022-11-20T12:18:53.374Z,0.82
2022-11-20T12:21:37.839Z,0.84
2022-11-20T12:24:07.571Z,0.88
2022-11-20T12:27:15.043Z,0.93
2022-11-20T12:30:11.221Z,0.98
2022-11-20T12:32:40.524Z,1.02
2022-11-20T12:35:15.434Z,1.02
2022-11-20T12:38:04.258Z,1.05
2022-11-20T12:41:05.974Z,1.05
2022-11-20T12:43:58.842Z,1.06
2022-11-20T12:46:48.913Z,1.09
2022-11-20T12:49:31.570Z,1.12
2022-11-20T12:51:57.862Z,1.13
2022-11-20T12:54:41.124Z,1.17
2022-11-20T12:57:29.980Z,1.21
2022-11-20T13:00:09.212Z,1.22
2022-11-20T13:03:14.030Z,1.26
2022-11-20T13:05:52.539Z,1.29
2022-11-20T13:08:28.768Z,1.31
2022-11-20T13:11:01.193Z,1.32
2022-11-20T13:13:43.985Z,1.34
2022-11-20T13:16:25.060Z,1.32
2022-11-20T13:18:51.800Z,1.32
2022-11-20T13:21:23.651Z,1.33
2022-11-20T13:23:50.162Z,1.32
2022-11-20T13:26:20.866Z,1.33
2022-11-20T13:28:49.387Z,1.34
2022-11-20T13:31:36.527Z,1.36
2022-11-20T13:34:07.281Z,1.36
2022-11-20T13:36:35.941Z,1.36
2022-11-20T13:39:02.320Z,1.35
2022-11-20T13:41:38.756Z,1.37
2022-11-20T13:44:15.851Z,1.36
2022-11-20T13:46:45.811Z,1.36
2022-11-20T13:49:43.849Z,1.38
2022-11-20T13:52:39.484Z,1.38
2022-11-20T13:55:20.976Z,1.38
2022-11-20T13:58:05.710Z,1.40
2022-11-20T14:00:32.446Z,1.39
2022-11-20T14:03:28.381Z,1.40
2022-11-20T14:06:15.615Z,1.41
2022-11-20T14:08:46.855Z,1.42
2022-11-20T14:11:22.266Z,1.43
2022-11-20T14:14:05.058Z,1.44
2022-11-20T14:16:37.628Z,1.45
2022-11-20T14:19:22.925Z,1.47
2022-11-20T14:22:12.070Z,1.50
2022-11-20T14:24:38.597Z,1.50
2022-11-20T14:27:05.277Z,1.51
2022-11-20T14:29:37.252Z,1.52
2022-11-20T14:32:04.752Z,1.53
2022-11-20T14:34:33.519Z,1.54
2022-11-20T14:37:02.646Z,1.54
2022-11-20T14:39:43.161Z,1.56
2022-11-20T14:42:17.962Z,1.55
2022-11-20T14:44:45.448Z,1.55
2022-11-20T14:47:14.254Z,1.56
2022-11-20T14:49:41.498Z,1.57
2022-11-20T14:52:17.612Z,1.58
2022-11-20T14:54:46.204Z,1.57
2022-11-20T14:57:22.249Z,1.57
2022-11-20T14:59:48.678Z,1.58
2022-11-20T15:02:15.109Z,1.58
2022-11-20T15:04:49.368Z,1.58
2022-11-20T15:07:41.020Z,1.60
2022-11-20T15:10:09.275Z,1.59
2022-11-20T15:12:38.925Z,1.60
2022-11-20T15:15:06.697Z,1.59
2022-11-20T15:17:37.818Z,1.60
2022-11-20T15:20:12.672Z,1.61
2022-11-20T15:22:39.074Z,1.61
2022-11-20T15:25:14.316Z,1.62
2022-11-20T15:27:40.840Z,1.62
2022-11-20T15:30:17.737Z,1.63
2022-11-20T15:32:45.136Z,1.63
2022-11-20T15:35:12.134Z,1.62
2022-11-20T15:37:39.190Z,1.63
2022-11-20T15:40:06.838Z,1.63
2022-11-20T15:42:34.333Z,1.63
2022-11-20T15:45:01.097Z,1.63
2022-11-20T15:47:36.880Z,1.63
2022-11-20T15:50:03.813Z,1.62
2022-11-20T15:52:36.302Z,1.61
2022-11-20T15:55:11.218Z,1.61
2022-11-20T15:57:37.624Z,1.61
2022-11-20T16:00:04.572Z,1.61
2022-11-20T16:02:30.967Z,1.62
2022-11-20T16:04:57.316Z,1.63
2022-11-20T16:07:23.845Z,1.65
2022-11-20T16:09:50.240Z,1.65
2022-11-20T16:12:36.624Z,1.66
2022-11-20T16:15:21.600Z,1.67
2022-11-20T16:17:47.958Z,1.67
2022-11-20T16:20:14.287Z,1.66
2022-11-20T16:22:40.695Z,1.67
2022-11-20T16:25:07.827Z,1.67
2022-11-20T16:27:34.611Z,1.68
2022-11-20T16:30:00.944Z,1.69
2022-11-20T16:32:29.894Z,1.70
2022-11-20T16:34:56.513Z,1.69
2022-11-20T16:37:23.003Z,1.72
2022-11-20T16:39:49.755Z,1.73
2022-11-20T16:42:16.086Z,1.73
2022-11-20T16:44:46.840Z,1.75
2022-11-20T16:47:13.499Z,1.76
2022-11-20T16:49:39.849Z,1.77
2022-11-20T16:52:09.294Z,1.78
2022-11-20T16:54:35.651Z,1.79
2022-11-20T16:57:02.057Z,1.79
2022-11-20T16:59:28.423Z,1.81
2022-11-20T17:01:55.001Z,1.83
2022-11-20T17:04:22.010Z,1.84
2022-11-20T17:06:48.595Z,1.86
2022-11-20T17:09:15.058Z,1.87
2022-11-20T17:11:41.875Z,1.88
2022-11-20T17:14:14.436Z,1.89
2022-11-20T17:16:47.535Z,1.88
2022-11-20T17:19:14.866Z,1.91
2022-11-20T17:21:41.364Z,1.91
2022-11-20T17:24:10.609Z,1.92
2022-11-20T17:26:39.006Z,1.93
2022-11-20T17:29:07.662Z,1.92
2022-11-20T17:31:35.014Z,1.92
2022-11-20T17:34:02.324Z,1.93
2022-11-20T17:36:30.013Z,1.93
2022-11-20T17:38:56.825Z,1.93
2022-11-20T17:41:25.517Z,1.93
2022-11-20T17:43:56.968Z,1.93
2022-11-20T17:46:25.982Z,1.95
2022-11-20T17:48:52.594Z,1.94
2022-11-20T17:51:21.156Z,1.95
2022-11-20T17:53:53.431Z,1.97
2022-11-20T17:56:39.011Z,1.98
2022-11-20T17:59:06.449Z,1.98
2022-11-20T18:01:33.028Z,1.98
2022-11-20T18:03:59.701Z,1.97
2022-11-20T18:06:28.566Z,1.99
2022-11-20T18:08:55.428Z,2.01
2022-11-20T18:11:23.468Z,2.01
2022-11-20T18:14:11.246Z,2.02
2022-11-20T18:16:42.887Z,2.03
2022-11-20T18:19:11.441Z,2.05
2022-11-20T18:21:37.960Z,2.04
2022-11-20T18:24:04.645Z,2.03
2022-11-20T18:26:31.103Z,2.06
2022-11-20T18:28:57.859Z,2.04
2022-11-20T18:31:24.324Z,2.07
2022-11-20T18:33:52.491Z,2.07
2022-11-20T18:36:22.067Z,2.06
2022-11-20T18:38:50.962Z,2.07
2022-11-20T18:41:40.685Z,2.07
2022-11-20T18:44:35.626Z,2.09
2022-11-20T18:47:04.848Z,2.08
2022-11-20T18:49:34.389Z,2.08
2022-11-20T18:52:00.908Z,2.09
2022-11-20T18:54:30.368Z,2.10
2022-11-20T18:56:56.855Z,2.09
2022-11-20T18:59:23.636Z,2.10
2022-11-20T19:01:50.278Z,2.09
2022-11-20T19:04:21.039Z,2.11
2022-11-20T19:06:52.821Z,2.12
2022-11-20T19:09:19.584Z,2.12
2022-11-20T19:11:46.089Z,2.13
2022-11-20T19:14:12.541Z,2.12
2022-11-20T19:16:39.216Z,2.11
2022-11-20T19:19:07.376Z,2.13
2022-11-20T19:21:34.944Z,2.13
2022-11-20T19:24:03.179Z,2.13
2022-11-20T19:26:30.159Z,2.14
2022-11-20T19:28:56.736Z,2.13
2022-11-20T19:31:26.793Z,2.13
2022-11-20T19:33:58.816Z,2.14
2022-11-20T19:36:28.317Z,2.14
2022-11-20T19:38:55.310Z,2.14
2022-11-20T19:41:31.426Z,2.15
2022-11-20T19:43:59.417Z,2.13
2022-11-20T19:46:27.602Z,2.12
2022-11-20T19:48:54.701Z,2.11
2022-11-20T19:51:24.882Z,2.11
2022-11-20T19:53:51.821Z,2.10
2022-11-20T19:56:18.759Z,2.09
2022-11-20T19:58:45.197Z,2.09
2022-11-20T20:01:20.070Z,2.10
2022-11-20T20:03:47.706Z,2.08
2022-11-20T20:06:17.004Z,2.10
2022-11-20T20:08:44.110Z,2.11
2022-11-20T20:11:14.328Z,2.12
2022-11-20T20:13:41.764Z,2.11
2022-11-20T20:16:10.206Z,2.13
2022-11-20T20:18:36.908Z,2.13
2022-11-20T20:21:08.528Z,2.14
2022-11-20T20:23:38.483Z,2.13
2022-11-20T20:26:07.437Z,2.13
2022-11-20T20:28:35.258Z,2.16
2022-11-20T20:31:09.683Z,2.18
2022-11-20T20:33:37.281Z,2.17
2022-11-20T20:36:08.955Z,2.17
2022-11-20T20:38:35.371Z,2.17
2022-11-20T20:41:02.223Z,2.17
2022-11-20T20:43:28.652Z,2.18
2022-11-20T20:45:55.551Z,2.19
2022-11-20T20:48:24.334Z,2.21
2022-11-20T20:50:59.314Z,2.22
2022-11-20T20:53:27.372Z,2.20
2022-11-20T20:55:58.157Z,2.18
2022-11-20T20:58:25.466Z,2.17
2022-11-20T21:00:52.244Z,2.20
2022-11-20T21:03:19.550Z,2.20
2022-11-20T21:05:46.993Z,2.19
2022-11-20T21:08:22.404Z,2.18
2022-11-20T21:10:49.809Z,2.21
2022-11-20T21:13:16.625Z,2.22
2022-11-20T21:15:45.700Z,2.24
2022-11-20T21:18:12.061Z,2.24
2022-11-20T21:20:59.963Z,2.25
2022-11-20T21:23:26.475Z,2.23
2022-11-20T21:25:52.919Z,2.24
2022-11-20T21:28:19.503Z,2.28
2022-11-20T21:30:46.595Z,2.28
2022-11-20T21:33:13.315Z,2.28
2022-11-20T21:35:41.287Z,2.30
2022-11-20T21:38:07.801Z,2.30
2022-11-20T21:40:34.180Z,2.31
2022-11-20T21:43:00.759Z,2.28
2022-11-20T21:45:27.210Z,2.29
2022-11-20T21:47:54.813Z,2.29
2022-11-20T21:50:24.598Z,2.29
2022-11-20T21:52:51.012Z,2.29
2022-11-20T21:55:17.520Z,2.30
2022-11-20T21:57:43.947Z,2.31
2022-11-20T22:00:12.218Z,2.30
2022-11-20T22:02:40.284Z,2.31
2022-11-20T22:05:08.309Z,2.32
2022-11-20T22:07:35.335Z,2.32
2022-11-20T22:10:01.796Z,2.32
2022-11-20T22:12:28.388Z,2.32
2022-11-20T22:14:54.914Z,2.32
2022-11-20T22:17:41.228Z,2.30
2022-11-20T22:20:08.579Z,2.30
2022-11-20T22:22:34.990Z,2.32
2022-11-20T22:25:01.341Z,2.32
2022-11-20T22:27:32.703Z,2.33
2022-11-20T22:29:59.116Z,2.33
2022-11-20T22:32:25.613Z,2.32
2022-11-20T22:34:52.150Z,2.32
2022-11-20T22:37:18.556Z,2.33
2022-11-20T22:39:44.992Z,2.32
2022-11-20T22:42:11.402Z,2.32
2022-11-20T22:44:37.785Z,2.31
2022-11-20T22:47:08.695Z,2.32
2022-11-20T22:49:37.618Z,2.31
2022-11-20T22:52:04.124Z,2.31
2022-11-20T22:54:30.542Z,2.32
2022-11-20T22:56:56.975Z,2.32
2022-11-20T22:59:23.478Z,2.31
2022-11-20T23:01:53.159Z,2.31
2022-11-20T23:04:21.941Z,2.32
2022-11-20T23:06:50.439Z,2.32
2022-11-20T23:09:17.513Z,2.29
2022-11-20T23:11:46.619Z,2.30
2022-11-20T23:14:15.326Z,2.31
2022-11-20T23:16:42.312Z,2.31
2022-11-20T23:19:14.582Z,2.30
2022-11-20T23:21:42.325Z,2.32
2022-11-20T23:24:09.750Z,2.32
2022-11-20T23:26:39.201Z,2.30
2022-11-20T23:29:06.502Z,2.29
2022-11-20T23:31:34.956Z,2.28
2022-11-20T23:34:01.636Z,2.29
2022-11-20T23:36:28.331Z,2.28
2022-11-20T23:38:54.693Z,2.29
2022-11-20T23:41:21.255Z,2.28
2022-11-20T23:43:47.660Z,2.24
2022-11-20T23:46:16.664Z,2.26
2022-11-20T23:48:45.229Z,2.26
2022-11-20T23:51:12.299Z,2.26
2022-11-20T23:53:38.754Z,2.24
2022-11-20T23:56:06.045Z,2.24
2022-11-20T23:58:34.777Z,2.21
